sensor_id;sensor_type;location;lat;lon;timestamp;P1;durP1;ratioP1;P2;durP2;ratioP2
57023;SDS011;42916;54.346;18.562;2023-04-25T00:00:30;5.90;;;2.70;;
57023;SDS011;42916;54.346;18.562;2023-04-25T00:03:17;3.70;;;2.80;;
57023;SDS011;42916;54.346;18.562;2023-04-25T00:05:44;3.50;;;2.80;;
57023;SDS011;42916;54.346;18.562;2023-04-25T00:08:11;4.60;;;2.80;;
57023;SDS011;42916;54.346;18.562;2023-04-25T00:10:38;4.30;;;2.60;;
57023;SDS011;42916;54.346;18.562;2023-04-25T00:13:05;4.20;;;2.90;;
57023;SDS011;42916;54.346;18.562;2023-04-25T00:15:32;4.40;;;3.00;;
57023;SDS011;42916;54.346;18.562;2023-04-25T00:17:59;3.60;;;3.10;;
57023;SDS011;42916;54.346;18.562;2023-04-25T00:20:26;3.30;;;3.00;;
57023;SDS011;42916;54.346;18.562;2023-04-25T00:22:52;3.30;;;2.80;;
57023;SDS011;42916;54.346;18.562;2023-04-25T00:25:19;3.50;;;3.00;;
57023;SDS011;42916;54.346;18.562;2023-04-25T00:27:46;4.00;;;2.90;;
57023;SDS011;42916;54.346;18.562;2023-04-25T00:30:13;4.60;;;3.20;;
57023;SDS011;42916;54.346;18.562;2023-04-25T00:32:40;5.60;;;4.10;;
57023;SDS011;42916;54.346;18.562;2023-04-25T00:35:07;5.10;;;4.20;;
57023;SDS011;42916;54.346;18.562;2023-04-25T00:37:34;6.60;;;4.40;;
57023;SDS011;42916;54.346;18.562;2023-04-25T00:40:01;6.70;;;4.80;;
57023;SDS011;42916;54.346;18.562;2023-04-25T00:42:29;5.40;;;4.10;;
57023;SDS011;42916;54.346;18.562;2023-04-25T00:44:56;6.10;;;4.40;;
57023;SDS011;42916;54.346;18.562;2023-04-25T00:47:24;5.20;;;3.80;;
57023;SDS011;42916;54.346;18.562;2023-04-25T00:49:51;4.40;;;3.50;;
57023;SDS011;42916;54.346;18.562;2023-04-25T00:52:19;5.00;;;3.70;;
57023;SDS011;42916;54.346;18.562;2023-04-25T00:54:47;5.90;;;3.80;;
57023;SDS011;42916;54.346;18.562;2023-04-25T00:57:13;5.10;;;3.40;;
57023;SDS011;42916;54.346;18.562;2023-04-25T00:59:40;4.10;;;3.50;;
57023;SDS011;42916;54.346;18.562;2023-04-25T01:02:12;4.30;;;3.40;;
57023;SDS011;42916;54.346;18.562;2023-04-25T01:04:39;4.50;;;4.10;;
57023;SDS011;42916;54.346;18.562;2023-04-25T01:07:06;5.50;;;4.60;;
57023;SDS011;42916;54.346;18.562;2023-04-25T01:09:33;5.90;;;5.30;;
57023;SDS011;42916;54.346;18.562;2023-04-25T01:12:00;9.50;;;6.60;;
57023;SDS011;42916;54.346;18.562;2023-04-25T01:14:27;7.90;;;7.10;;
57023;SDS011;42916;54.346;18.562;2023-04-25T01:16:56;9.60;;;7.00;;
57023;SDS011;42916;54.346;18.562;2023-04-25T01:19:23;10.50;;;6.00;;
57023;SDS011;42916;54.346;18.562;2023-04-25T01:21:50;9.70;;;6.10;;
57023;SDS011;42916;54.346;18.562;2023-04-25T01:24:18;7.40;;;5.20;;
57023;SDS011;42916;54.346;18.562;2023-04-25T01:26:45;10.40;;;5.70;;
57023;SDS011;42916;54.346;18.562;2023-04-25T01:29:17;9.30;;;6.30;;
57023;SDS011;42916;54.346;18.562;2023-04-25T01:31:45;7.30;;;6.10;;
57023;SDS011;42916;54.346;18.562;2023-04-25T01:34:12;6.90;;;5.60;;
57023;SDS011;42916;54.346;18.562;2023-04-25T01:36:39;8.00;;;6.00;;
57023;SDS011;42916;54.346;18.562;2023-04-25T01:39:07;6.70;;;5.30;;
57023;SDS011;42916;54.346;18.562;2023-04-25T01:41:34;6.40;;;4.90;;
57023;SDS011;42916;54.346;18.562;2023-04-25T01:44:01;7.00;;;4.90;;
57023;SDS011;42916;54.346;18.562;2023-04-25T01:46:29;6.00;;;4.50;;
57023;SDS011;42916;54.346;18.562;2023-04-25T01:48:56;8.30;;;4.60;;
57023;SDS011;42916;54.346;18.562;2023-04-25T01:51:23;8.40;;;4.80;;
57023;SDS011;42916;54.346;18.562;2023-04-25T01:53:50;5.50;;;4.20;;
57023;SDS011;42916;54.346;18.562;2023-04-25T01:56:18;6.00;;;4.50;;
57023;SDS011;42916;54.346;18.562;2023-04-25T01:58:45;7.20;;;4.50;;
57023;SDS011;42916;54.346;18.562;2023-04-25T02:01:24;6.40;;;4.70;;
57023;SDS011;42916;54.346;18.562;2023-04-25T02:04:01;6.70;;;4.30;;
57023;SDS011;42916;54.346;18.562;2023-04-25T02:06:33;6.20;;;4.30;;
57023;SDS011;42916;54.346;18.562;2023-04-25T02:09:00;4.80;;;4.10;;
57023;SDS011;42916;54.346;18.562;2023-04-25T02:11:27;5.80;;;4.60;;
57023;SDS011;42916;54.346;18.562;2023-04-25T02:14:12;4.70;;;4.30;;
57023;SDS011;42916;54.346;18.562;2023-04-25T02:16:46;7.20;;;4.70;;
57023;SDS011;42916;54.346;18.562;2023-04-25T02:19:13;5.10;;;4.60;;
57023;SDS011;42916;54.346;18.562;2023-04-25T02:21:40;5.70;;;4.10;;
57023;SDS011;42916;54.346;18.562;2023-04-25T02:24:07;5.70;;;4.40;;
57023;SDS011;42916;54.346;18.562;2023-04-25T02:26:34;5.40;;;4.80;;
57023;SDS011;42916;54.346;18.562;2023-04-25T02:29:01;7.90;;;5.00;;
57023;SDS011;42916;54.346;18.562;2023-04-25T02:31:27;6.20;;;4.80;;
57023;SDS011;42916;54.346;18.562;2023-04-25T02:33:54;6.80;;;4.90;;
57023;SDS011;42916;54.346;18.562;2023-04-25T02:36:21;5.80;;;4.50;;
57023;SDS011;42916;54.346;18.562;2023-04-25T02:38:48;6.80;;;4.40;;
57023;SDS011;42916;54.346;18.562;2023-04-25T02:41:15;5.60;;;4.60;;
57023;SDS011;42916;54.346;18.562;2023-04-25T02:43:42;5.10;;;4.50;;
57023;SDS011;42916;54.346;18.562;2023-04-25T02:46:09;5.40;;;4.80;;
57023;SDS011;42916;54.346;18.562;2023-04-25T02:48:36;7.40;;;4.70;;
57023;SDS011;42916;54.346;18.562;2023-04-25T02:51:02;6.80;;;4.40;;
57023;SDS011;42916;54.346;18.562;2023-04-25T02:53:30;7.70;;;4.90;;
57023;SDS011;42916;54.346;18.562;2023-04-25T02:55:56;6.00;;;4.50;;
57023;SDS011;42916;54.346;18.562;2023-04-25T02:58:24;7.60;;;4.80;;
57023;SDS011;42916;54.346;18.562;2023-04-25T03:00:53;6.80;;;4.80;;
57023;SDS011;42916;54.346;18.562;2023-04-25T03:03:20;6.70;;;5.20;;
57023;SDS011;42916;54.346;18.562;2023-04-25T03:05:50;7.60;;;5.40;;
57023;SDS011;42916;54.346;18.562;2023-04-25T03:08:21;7.50;;;5.40;;
57023;SDS011;42916;54.346;18.562;2023-04-25T03:10:49;6.30;;;4.60;;
57023;SDS011;42916;54.346;18.562;2023-04-25T03:13:17;8.20;;;4.80;;
57023;SDS011;42916;54.346;18.562;2023-04-25T03:15:44;5.70;;;5.00;;
57023;SDS011;42916;54.346;18.562;2023-04-25T03:18:11;5.30;;;4.80;;
57023;SDS011;42916;54.346;18.562;2023-04-25T03:20:39;5.50;;;4.90;;
57023;SDS011;42916;54.346;18.562;2023-04-25T03:23:09;5.80;;;5.00;;
57023;SDS011;42916;54.346;18.562;2023-04-25T03:25:36;5.80;;;5.00;;
57023;SDS011;42916;54.346;18.562;2023-04-25T03:28:04;5.00;;;4.50;;
57023;SDS011;42916;54.346;18.562;2023-04-25T03:30:31;6.10;;;4.60;;
57023;SDS011;42916;54.346;18.562;2023-04-25T03:32:58;6.00;;;4.50;;
57023;SDS011;42916;54.346;18.562;2023-04-25T03:35:25;5.00;;;4.50;;
57023;SDS011;42916;54.346;18.562;2023-04-25T03:37:52;5.00;;;4.50;;
57023;SDS011;42916;54.346;18.562;2023-04-25T03:40:23;5.90;;;5.30;;
57023;SDS011;42916;54.346;18.562;2023-04-25T03:43:05;6.10;;;4.90;;
57023;SDS011;42916;54.346;18.562;2023-04-25T03:45:33;6.50;;;5.30;;
57023;SDS011;42916;54.346;18.562;2023-04-25T03:48:00;5.50;;;4.50;;
57023;SDS011;42916;54.346;18.562;2023-04-25T03:50:27;6.10;;;4.60;;
57023;SDS011;42916;54.346;18.562;2023-04-25T03:52:54;5.80;;;4.60;;
57023;SDS011;42916;54.346;18.562;2023-04-25T03:55:22;5.20;;;4.40;;
57023;SDS011;42916;54.346;18.562;2023-04-25T03:57:49;5.70;;;4.80;;
57023;SDS011;42916;54.346;18.562;2023-04-25T04:00:16;6.00;;;4.50;;
57023;SDS011;42916;54.346;18.562;2023-04-25T04:02:43;5.80;;;4.20;;
57023;SDS011;42916;54.346;18.562;2023-04-25T04:05:11;5.90;;;4.80;;
57023;SDS011;42916;54.346;18.562;2023-04-25T04:07:43;6.10;;;4.70;;
57023;SDS011;42916;54.346;18.562;2023-04-25T04:10:11;6.00;;;4.40;;
57023;SDS011;42916;54.346;18.562;2023-04-25T04:12:40;6.50;;;4.90;;
57023;SDS011;42916;54.346;18.562;2023-04-25T04:15:07;5.00;;;4.50;;
57023;SDS011;42916;54.346;18.562;2023-04-25T04:17:34;6.00;;;4.50;;
57023;SDS011;42916;54.346;18.562;2023-04-25T04:20:01;4.90;;;4.30;;
57023;SDS011;42916;54.346;18.562;2023-04-25T04:22:31;6.50;;;4.80;;
57023;SDS011;42916;54.346;18.562;2023-04-25T04:25:03;6.30;;;4.70;;
57023;SDS011;42916;54.346;18.562;2023-04-25T04:27:50;8.10;;;5.30;;
57023;SDS011;42916;54.346;18.562;2023-04-25T04:30:38;5.60;;;4.80;;
57023;SDS011;42916;54.346;18.562;2023-04-25T04:33:08;5.90;;;4.70;;
57023;SDS011;42916;54.346;18.562;2023-04-25T04:35:36;6.80;;;4.70;;
57023;SDS011;42916;54.346;18.562;2023-04-25T04:38:02;5.60;;;4.90;;
57023;SDS011;42916;54.346;18.562;2023-04-25T04:40:34;7.10;;;5.40;;
57023;SDS011;42916;54.346;18.562;2023-04-25T04:43:10;6.50;;;5.20;;
57023;SDS011;42916;54.346;18.562;2023-04-25T04:45:55;8.10;;;5.00;;
57023;SDS011;42916;54.346;18.562;2023-04-25T04:48:41;6.10;;;4.60;;
57023;SDS011;42916;54.346;18.562;2023-04-25T04:51:14;6.30;;;5.30;;
57023;SDS011;42916;54.346;18.562;2023-04-25T04:53:52;6.00;;;5.10;;
57023;SDS011;42916;54.346;18.562;2023-04-25T04:56:31;6.60;;;4.40;;
57023;SDS011;42916;54.346;18.562;2023-04-25T04:59:17;6.30;;;4.80;;
57023;SDS011;42916;54.346;18.562;2023-04-25T05:02:04;6.00;;;4.60;;
57023;SDS011;42916;54.346;18.562;2023-04-25T05:04:46;6.60;;;4.20;;
57023;SDS011;42916;54.346;18.562;2023-04-25T05:07:31;6.10;;;4.60;;
57023;SDS011;42916;54.346;18.562;2023-04-25T05:10:05;5.90;;;4.60;;
57023;SDS011;42916;54.346;18.562;2023-04-25T05:12:55;5.40;;;4.40;;
57023;SDS011;42916;54.346;18.562;2023-04-25T05:15:34;8.20;;;5.00;;
57023;SDS011;42916;54.346;18.562;2023-04-25T05:18:27;7.80;;;5.30;;
57023;SDS011;42916;54.346;18.562;2023-04-25T05:21:16;9.30;;;4.80;;
57023;SDS011;42916;54.346;18.562;2023-04-25T05:24:02;6.10;;;4.70;;
57023;SDS011;42916;54.346;18.562;2023-04-25T05:26:52;9.50;;;5.10;;
57023;SDS011;42916;54.346;18.562;2023-04-25T05:29:22;6.90;;;4.80;;
57023;SDS011;42916;54.346;18.562;2023-04-25T05:32:06;8.70;;;5.30;;
57023;SDS011;42916;54.346;18.562;2023-04-25T05:34:34;6.80;;;5.00;;
57023;SDS011;42916;54.346;18.562;2023-04-25T05:37:05;8.30;;;4.60;;
57023;SDS011;42916;54.346;18.562;2023-04-25T05:39:36;7.40;;;4.30;;
57023;SDS011;42916;54.346;18.562;2023-04-25T05:42:26;5.70;;;4.30;;
57023;SDS011;42916;54.346;18.562;2023-04-25T05:45:05;5.50;;;4.20;;
57023;SDS011;42916;54.346;18.562;2023-04-25T05:47:41;6.20;;;4.60;;
57023;SDS011;42916;54.346;18.562;2023-04-25T05:50:17;6.30;;;3.90;;
57023;SDS011;42916;54.346;18.562;2023-04-25T05:52:54;6.20;;;4.10;;
57023;SDS011;42916;54.346;18.562;2023-04-25T05:55:27;6.00;;;4.30;;
57023;SDS011;42916;54.346;18.562;2023-04-25T05:57:54;6.10;;;4.50;;
57023;SDS011;42916;54.346;18.562;2023-04-25T06:00:22;6.90;;;4.00;;
57023;SDS011;42916;54.346;18.562;2023-04-25T06:02:50;8.10;;;3.80;;
57023;SDS011;42916;54.346;18.562;2023-04-25T06:05:18;5.70;;;3.20;;
57023;SDS011;42916;54.346;18.562;2023-04-25T06:07:46;5.00;;;3.60;;
57023;SDS011;42916;54.346;18.562;2023-04-25T06:10:12;4.30;;;3.40;;
57023;SDS011;42916;54.346;18.562;2023-04-25T06:12:39;6.80;;;3.60;;
57023;SDS011;42916;54.346;18.562;2023-04-25T06:15:06;5.50;;;3.50;;
57023;SDS011;42916;54.346;18.562;2023-04-25T06:17:33;7.40;;;3.80;;
57023;SDS011;42916;54.346;18.562;2023-04-25T06:20:01;8.10;;;3.80;;
57023;SDS011;42916;54.346;18.562;2023-04-25T06:22:29;5.90;;;3.70;;
57023;SDS011;42916;54.346;18.562;2023-04-25T06:24:56;6.80;;;4.10;;
57023;SDS011;42916;54.346;18.562;2023-04-25T06:27:25;7.00;;;3.90;;
57023;SDS011;42916;54.346;18.562;2023-04-25T06:29:52;5.30;;;3.40;;
57023;SDS011;42916;54.346;18.562;2023-04-25T06:32:19;4.70;;;4.00;;
57023;SDS011;42916;54.346;18.562;2023-04-25T06:34:47;5.40;;;3.80;;
57023;SDS011;42916;54.346;18.562;2023-04-25T06:37:14;6.40;;;3.90;;
57023;SDS011;42916;54.346;18.562;2023-04-25T06:39:41;4.40;;;3.60;;
57023;SDS011;42916;54.346;18.562;2023-04-25T06:42:08;7.60;;;4.10;;
57023;SDS011;42916;54.346;18.562;2023-04-25T06:44:41;8.40;;;3.90;;
57023;SDS011;42916;54.346;18.562;2023-04-25T06:47:09;5.70;;;3.90;;
57023;SDS011;42916;54.346;18.562;2023-04-25T06:49:36;5.80;;;3.70;;
57023;SDS011;42916;54.346;18.562;2023-04-25T06:52:03;4.40;;;3.50;;
57023;SDS011;42916;54.346;18.562;2023-04-25T06:54:30;5.60;;;3.60;;
57023;SDS011;42916;54.346;18.562;2023-04-25T06:57:03;5.40;;;3.40;;
57023;SDS011;42916;54.346;18.562;2023-04-25T06:59:32;5.40;;;3.30;;
57023;SDS011;42916;54.346;18.562;2023-04-25T07:01:59;5.00;;;3.30;;
57023;SDS011;42916;54.346;18.562;2023-04-25T07:04:26;4.80;;;3.30;;
57023;SDS011;42916;54.346;18.562;2023-04-25T07:09:37;4.00;;;3.10;;
57023;SDS011;42916;54.346;18.562;2023-04-25T07:12:05;5.60;;;4.20;;
57023;SDS011;42916;54.346;18.562;2023-04-25T07:14:31;6.30;;;3.40;;
57023;SDS011;42916;54.346;18.562;2023-04-25T07:17:00;5.60;;;3.70;;
57023;SDS011;42916;54.346;18.562;2023-04-25T07:19:27;6.30;;;3.50;;
57023;SDS011;42916;54.346;18.562;2023-04-25T07:21:57;4.60;;;3.30;;
57023;SDS011;42916;54.346;18.562;2023-04-25T07:24:24;5.80;;;3.20;;
57023;SDS011;42916;54.346;18.562;2023-04-25T07:26:51;5.30;;;3.20;;
57023;SDS011;42916;54.346;18.562;2023-04-25T07:29:18;4.40;;;3.30;;
57023;SDS011;42916;54.346;18.562;2023-04-25T07:31:44;4.20;;;3.30;;
57023;SDS011;42916;54.346;18.562;2023-04-25T07:34:11;5.00;;;3.60;;
57023;SDS011;42916;54.346;18.562;2023-04-25T07:36:38;3.70;;;2.80;;
57023;SDS011;42916;54.346;18.562;2023-04-25T07:39:06;3.80;;;3.00;;
57023;SDS011;42916;54.346;18.562;2023-04-25T07:41:36;3.50;;;2.50;;
57023;SDS011;42916;54.346;18.562;2023-04-25T07:44:03;4.50;;;2.30;;
57023;SDS011;42916;54.346;18.562;2023-04-25T07:46:30;3.90;;;2.00;;
57023;SDS011;42916;54.346;18.562;2023-04-25T07:48:57;2.30;;;2.10;;
57023;SDS011;42916;54.346;18.562;2023-04-25T07:51:24;3.40;;;2.00;;
57023;SDS011;42916;54.346;18.562;2023-04-25T07:53:57;2.40;;;2.00;;
57023;SDS011;42916;54.346;18.562;2023-04-25T07:56:25;2.90;;;1.90;;
57023;SDS011;42916;54.346;18.562;2023-04-25T07:58:52;2.60;;;1.80;;
57023;SDS011;42916;54.346;18.562;2023-04-25T08:01:20;4.30;;;2.10;;
57023;SDS011;42916;54.346;18.562;2023-04-25T08:03:52;2.60;;;2.00;;
57023;SDS011;42916;54.346;18.562;2023-04-25T08:06:39;4.20;;;2.20;;
57023;SDS011;42916;54.346;18.562;2023-04-25T08:09:14;2.50;;;2.00;;
57023;SDS011;42916;54.346;18.562;2023-04-25T08:11:42;2.70;;;1.90;;
57023;SDS011;42916;54.346;18.562;2023-04-25T08:14:12;2.10;;;1.90;;
57023;SDS011;42916;54.346;18.562;2023-04-25T08:16:39;3.50;;;1.80;;
57023;SDS011;42916;54.346;18.562;2023-04-25T08:19:07;2.60;;;1.70;;
57023;SDS011;42916;54.346;18.562;2023-04-25T08:21:37;2.90;;;1.80;;
57023;SDS011;42916;54.346;18.562;2023-04-25T08:24:10;2.00;;;1.40;;
57023;SDS011;42916;54.346;18.562;2023-04-25T08:26:38;2.50;;;1.80;;
57023;SDS011;42916;54.346;18.562;2023-04-25T08:29:07;2.00;;;1.60;;
57023;SDS011;42916;54.346;18.562;2023-04-25T08:31:36;2.60;;;2.00;;
57023;SDS011;42916;54.346;18.562;2023-04-25T08:34:04;3.00;;;1.90;;
57023;SDS011;42916;54.346;18.562;2023-04-25T08:36:38;3.30;;;1.90;;
57023;SDS011;42916;54.346;18.562;2023-04-25T08:39:05;2.40;;;1.90;;
57023;SDS011;42916;54.346;18.562;2023-04-25T08:41:36;2.00;;;1.60;;
57023;SDS011;42916;54.346;18.562;2023-04-25T08:44:05;3.20;;;2.10;;
57023;SDS011;42916;54.346;18.562;2023-04-25T08:46:37;4.60;;;2.00;;
57023;SDS011;42916;54.346;18.562;2023-04-25T08:49:14;3.30;;;1.80;;
57023;SDS011;42916;54.346;18.562;2023-04-25T08:51:46;2.40;;;1.60;;
57023;SDS011;42916;54.346;18.562;2023-04-25T08:54:14;2.80;;;2.20;;
57023;SDS011;42916;54.346;18.562;2023-04-25T08:56:43;2.70;;;1.90;;
57023;SDS011;42916;54.346;18.562;2023-04-25T08:59:11;2.60;;;1.70;;
57023;SDS011;42916;54.346;18.562;2023-04-25T09:01:40;3.00;;;1.60;;
57023;SDS011;42916;54.346;18.562;2023-04-25T09:04:07;2.00;;;1.80;;
57023;SDS011;42916;54.346;18.562;2023-04-25T09:06:34;2.30;;;1.70;;
57023;SDS011;42916;54.346;18.562;2023-04-25T09:09:06;2.20;;;1.80;;
57023;SDS011;42916;54.346;18.562;2023-04-25T09:11:35;2.20;;;2.00;;
57023;SDS011;42916;54.346;18.562;2023-04-25T09:19:41;2.80;;;1.90;;
57023;SDS011;42916;54.346;18.562;2023-04-25T09:22:27;2.10;;;1.90;;
57023;SDS011;42916;54.346;18.562;2023-04-25T09:24:54;3.60;;;1.90;;
57023;SDS011;42916;54.346;18.562;2023-04-25T09:27:24;2.30;;;1.70;;
57023;SDS011;42916;54.346;18.562;2023-04-25T09:30:07;3.20;;;1.90;;
57023;SDS011;42916;54.346;18.562;2023-04-25T09:33:04;2.00;;;1.80;;
57023;SDS011;42916;54.346;18.562;2023-04-25T09:35:36;3.50;;;2.20;;
57023;SDS011;42916;54.346;18.562;2023-04-25T09:38:09;1.90;;;1.80;;
57023;SDS011;42916;54.346;18.562;2023-04-25T09:41:05;5.10;;;2.50;;
57023;SDS011;42916;54.346;18.562;2023-04-25T09:43:45;3.20;;;1.90;;
57023;SDS011;42916;54.346;18.562;2023-04-25T09:46:13;3.50;;;1.80;;
57023;SDS011;42916;54.346;18.562;2023-04-25T09:48:48;2.60;;;2.10;;
57023;SDS011;42916;54.346;18.562;2023-04-25T09:51:17;2.60;;;1.90;;
57023;SDS011;42916;54.346;18.562;2023-04-25T09:53:46;2.40;;;2.10;;
57023;SDS011;42916;54.346;18.562;2023-04-25T09:56:29;2.40;;;1.70;;
57023;SDS011;42916;54.346;18.562;2023-04-25T09:59:05;4.30;;;2.50;;
57023;SDS011;42916;54.346;18.562;2023-04-25T10:01:34;3.00;;;2.40;;
57023;SDS011;42916;54.346;18.562;2023-04-25T10:04:10;2.50;;;2.30;;
57023;SDS011;42916;54.346;18.562;2023-04-25T10:06:57;4.90;;;2.10;;
57023;SDS011;42916;54.346;18.562;2023-04-25T10:09:25;2.00;;;1.80;;
57023;SDS011;42916;54.346;18.562;2023-04-25T10:11:58;1.70;;;1.60;;
57023;SDS011;42916;54.346;18.562;2023-04-25T10:14:26;2.60;;;2.00;;
57023;SDS011;42916;54.346;18.562;2023-04-25T10:16:53;2.50;;;2.00;;
57023;SDS011;42916;54.346;18.562;2023-04-25T10:19:21;2.60;;;2.30;;
57023;SDS011;42916;54.346;18.562;2023-04-25T10:21:51;2.50;;;2.30;;
57023;SDS011;42916;54.346;18.562;2023-04-25T10:24:39;3.40;;;1.90;;
57023;SDS011;42916;54.346;18.562;2023-04-25T10:27:06;3.00;;;1.60;;
57023;SDS011;42916;54.346;18.562;2023-04-25T10:29:34;2.60;;;1.60;;
57023;SDS011;42916;54.346;18.562;2023-04-25T10:32:01;4.10;;;1.90;;
57023;SDS011;42916;54.346;18.562;2023-04-25T10:34:39;2.60;;;1.60;;
57023;SDS011;42916;54.346;18.562;2023-04-25T10:37:10;3.20;;;1.80;;
57023;SDS011;42916;54.346;18.562;2023-04-25T10:39:40;4.30;;;1.50;;
57023;SDS011;42916;54.346;18.562;2023-04-25T10:42:08;2.30;;;1.70;;
57023;SDS011;42916;54.346;18.562;2023-04-25T10:44:36;2.20;;;1.60;;
57023;SDS011;42916;54.346;18.562;2023-04-25T10:49:36;4.70;;;2.40;;
57023;SDS011;42916;54.346;18.562;2023-04-25T10:54:48;3.10;;;2.30;;
57023;SDS011;42916;54.346;18.562;2023-04-25T10:59:59;7.00;;;3.10;;
57023;SDS011;42916;54.346;18.562;2023-04-25T11:02:40;4.50;;;2.60;;
57023;SDS011;42916;54.346;18.562;2023-04-25T11:05:23;3.40;;;2.50;;
57023;SDS011;42916;54.346;18.562;2023-04-25T11:08:01;3.30;;;2.50;;
57023;SDS011;42916;54.346;18.562;2023-04-25T11:10:30;4.20;;;2.60;;
57023;SDS011;42916;54.346;18.562;2023-04-25T11:12:58;3.60;;;2.20;;
57023;SDS011;42916;54.346;18.562;2023-04-25T11:15:26;5.50;;;2.10;;
57023;SDS011;42916;54.346;18.562;2023-04-25T11:17:54;5.70;;;3.70;;
57023;SDS011;42916;54.346;18.562;2023-04-25T11:20:22;3.60;;;2.20;;
57023;SDS011;42916;54.346;18.562;2023-04-25T11:22:52;2.50;;;2.00;;
57023;SDS011;42916;54.346;18.562;2023-04-25T11:25:19;3.50;;;2.00;;
57023;SDS011;42916;54.346;18.562;2023-04-25T11:27:52;3.40;;;2.10;;
57023;SDS011;42916;54.346;18.562;2023-04-25T11:30:20;5.90;;;2.70;;
57023;SDS011;42916;54.346;18.562;2023-04-25T11:32:48;2.80;;;2.00;;
57023;SDS011;42916;54.346;18.562;2023-04-25T11:35:15;3.10;;;2.40;;
57023;SDS011;42916;54.346;18.562;2023-04-25T11:37:42;5.00;;;2.60;;
57023;SDS011;42916;54.346;18.562;2023-04-25T11:40:10;3.50;;;2.50;;
57023;SDS011;42916;54.346;18.562;2023-04-25T11:42:46;2.90;;;2.10;;
57023;SDS011;42916;54.346;18.562;2023-04-25T11:45:14;4.20;;;2.50;;
57023;SDS011;42916;54.346;18.562;2023-04-25T11:47:41;5.10;;;2.60;;
57023;SDS011;42916;54.346;18.562;2023-04-25T11:50:08;4.00;;;2.40;;
57023;SDS011;42916;54.346;18.562;2023-04-25T11:52:40;5.30;;;2.80;;
57023;SDS011;42916;54.346;18.562;2023-04-25T11:55:17;4.80;;;2.30;;
57023;SDS011;42916;54.346;18.562;2023-04-25T11:57:49;2.50;;;1.80;;
57023;SDS011;42916;54.346;18.562;2023-04-25T12:00:19;3.10;;;2.20;;
57023;SDS011;42916;54.346;18.562;2023-04-25T12:02:47;4.50;;;2.10;;
57023;SDS011;42916;54.346;18.562;2023-04-25T12:05:19;3.40;;;2.00;;
57023;SDS011;42916;54.346;18.562;2023-04-25T12:07:46;5.30;;;2.60;;
57023;SDS011;42916;54.346;18.562;2023-04-25T12:10:14;6.00;;;2.80;;
57023;SDS011;42916;54.346;18.562;2023-04-25T12:12:42;5.00;;;2.20;;
57023;SDS011;42916;54.346;18.562;2023-04-25T12:17:38;5.50;;;2.30;;
57023;SDS011;42916;54.346;18.562;2023-04-25T12:20:09;4.80;;;2.70;;
57023;SDS011;42916;54.346;18.562;2023-04-25T12:22:40;5.80;;;2.70;;
57023;SDS011;42916;54.346;18.562;2023-04-25T12:25:11;4.90;;;2.30;;
57023;SDS011;42916;54.346;18.562;2023-04-25T12:27:39;3.30;;;2.50;;
57023;SDS011;42916;54.346;18.562;2023-04-25T12:32:35;4.60;;;2.40;;
57023;SDS011;42916;54.346;18.562;2023-04-25T12:35:02;4.50;;;2.40;;
57023;SDS011;42916;54.346;18.562;2023-04-25T12:37:30;6.30;;;2.70;;
57023;SDS011;42916;54.346;18.562;2023-04-25T12:39:57;4.40;;;2.30;;
57023;SDS011;42916;54.346;18.562;2023-04-25T12:42:24;3.90;;;2.50;;
57023;SDS011;42916;54.346;18.562;2023-04-25T12:44:50;6.40;;;2.90;;
57023;SDS011;42916;54.346;18.562;2023-04-25T12:47:17;3.50;;;2.70;;
57023;SDS011;42916;54.346;18.562;2023-04-25T12:49:44;3.20;;;2.40;;
57023;SDS011;42916;54.346;18.562;2023-04-25T12:52:11;4.90;;;2.80;;
57023;SDS011;42916;54.346;18.562;2023-04-25T12:54:37;4.30;;;2.50;;
57023;SDS011;42916;54.346;18.562;2023-04-25T12:57:05;4.50;;;2.50;;
57023;SDS011;42916;54.346;18.562;2023-04-25T12:59:32;3.70;;;2.40;;
57023;SDS011;42916;54.346;18.562;2023-04-25T13:01:58;6.10;;;2.30;;
57023;SDS011;42916;54.346;18.562;2023-04-25T13:04:25;4.40;;;2.60;;
57023;SDS011;42916;54.346;18.562;2023-04-25T13:06:52;4.00;;;2.40;;
57023;SDS011;42916;54.346;18.562;2023-04-25T13:09:19;4.60;;;2.50;;
57023;SDS011;42916;54.346;18.562;2023-04-25T13:11:46;4.90;;;2.90;;
57023;SDS011;42916;54.346;18.562;2023-04-25T13:14:13;4.60;;;2.70;;
57023;SDS011;42916;54.346;18.562;2023-04-25T13:16:40;6.30;;;2.90;;
57023;SDS011;42916;54.346;18.562;2023-04-25T13:19:07;4.50;;;2.60;;
57023;SDS011;42916;54.346;18.562;2023-04-25T13:21:37;4.30;;;2.70;;
57023;SDS011;42916;54.346;18.562;2023-04-25T13:24:04;5.10;;;2.80;;
57023;SDS011;42916;54.346;18.562;2023-04-25T13:26:31;4.70;;;2.60;;
57023;SDS011;42916;54.346;18.562;2023-04-25T13:28:57;6.00;;;2.70;;
57023;SDS011;42916;54.346;18.562;2023-04-25T13:31:24;6.90;;;2.90;;
57023;SDS011;42916;54.346;18.562;2023-04-25T13:33:51;5.40;;;2.70;;
57023;SDS011;42916;54.346;18.562;2023-04-25T13:36:17;3.50;;;2.60;;
57023;SDS011;42916;54.346;18.562;2023-04-25T13:38:44;8.70;;;3.00;;
57023;SDS011;42916;54.346;18.562;2023-04-25T13:41:13;5.60;;;3.00;;
57023;SDS011;42916;54.346;18.562;2023-04-25T13:43:45;5.30;;;2.80;;
57023;SDS011;42916;54.346;18.562;2023-04-25T13:46:13;4.80;;;2.90;;
57023;SDS011;42916;54.346;18.562;2023-04-25T13:48:41;5.30;;;2.80;;
57023;SDS011;42916;54.346;18.562;2023-04-25T13:51:13;6.10;;;2.90;;
57023;SDS011;42916;54.346;18.562;2023-04-25T13:53:39;8.90;;;3.00;;
57023;SDS011;42916;54.346;18.562;2023-04-25T13:56:06;5.80;;;3.00;;
57023;SDS011;42916;54.346;18.562;2023-04-25T13:58:33;6.90;;;4.00;;
57023;SDS011;42916;54.346;18.562;2023-04-25T14:01:00;6.40;;;3.50;;
57023;SDS011;42916;54.346;18.562;2023-04-25T14:03:27;4.60;;;3.00;;
57023;SDS011;42916;54.346;18.562;2023-04-25T14:05:53;4.80;;;3.00;;
57023;SDS011;42916;54.346;18.562;2023-04-25T14:08:20;7.50;;;3.70;;
57023;SDS011;42916;54.346;18.562;2023-04-25T14:10:47;5.30;;;3.30;;
57023;SDS011;42916;54.346;18.562;2023-04-25T14:13:14;4.30;;;3.30;;
57023;SDS011;42916;54.346;18.562;2023-04-25T14:15:41;6.30;;;3.10;;
57023;SDS011;42916;54.346;18.562;2023-04-25T14:18:08;7.70;;;3.50;;
57023;SDS011;42916;54.346;18.562;2023-04-25T14:20:34;7.30;;;3.80;;
57023;SDS011;42916;54.346;18.562;2023-04-25T14:23:02;8.70;;;4.50;;
57023;SDS011;42916;54.346;18.562;2023-04-25T14:25:29;7.50;;;4.40;;
57023;SDS011;42916;54.346;18.562;2023-04-25T14:27:56;6.60;;;3.10;;
57023;SDS011;42916;54.346;18.562;2023-04-25T14:30:23;7.20;;;2.80;;
57023;SDS011;42916;54.346;18.562;2023-04-25T14:32:50;12.00;;;2.80;;
57023;SDS011;42916;54.346;18.562;2023-04-25T14:35:17;5.20;;;2.30;;
57023;SDS011;42916;54.346;18.562;2023-04-25T14:37:44;7.30;;;2.10;;
57023;SDS011;42916;54.346;18.562;2023-04-25T14:40:11;8.00;;;2.80;;
57023;SDS011;42916;54.346;18.562;2023-04-25T14:42:39;9.40;;;2.70;;
57023;SDS011;42916;54.346;18.562;2023-04-25T14:45:06;10.80;;;3.10;;
57023;SDS011;42916;54.346;18.562;2023-04-25T14:47:35;6.50;;;2.70;;
57023;SDS011;42916;54.346;18.562;2023-04-25T14:50:03;7.70;;;2.70;;
57023;SDS011;42916;54.346;18.562;2023-04-25T14:52:31;8.50;;;2.40;;
57023;SDS011;42916;54.346;18.562;2023-04-25T14:54:58;7.00;;;3.00;;
57023;SDS011;42916;54.346;18.562;2023-04-25T14:57:26;8.20;;;3.70;;
57023;SDS011;42916;54.346;18.562;2023-04-25T14:59:53;7.80;;;2.80;;
57023;SDS011;42916;54.346;18.562;2023-04-25T15:02:20;9.60;;;4.00;;
57023;SDS011;42916;54.346;18.562;2023-04-25T15:04:46;13.10;;;4.40;;
57023;SDS011;42916;54.346;18.562;2023-04-25T15:07:13;12.30;;;4.10;;
57023;SDS011;42916;54.346;18.562;2023-04-25T15:09:41;9.90;;;3.50;;